Time;durP1;ratioP1;P1;durP2;ratioP2;P2;SDS_P1;SDS_P2;PMS_P1;PMS_P2;Temp;Humidity;BMP_temperature;BMP_pressure;BME280_temperature;BME280_humidity;BME280_pressure;Samples;Min_cycle;Max_cycle;Signal;HPM_P1;HPM_P2
2022/12/10 00:01:44;;;;;;;86.28;29.85;;;;;;;;;;5051894;28;20497;-76
2022/12/10 00:04:11;;;;;;;81.38;27.88;;;;;;;;;;5051739;28;20040;-76
2022/12/10 00:06:38;;;;;;;85.78;28.92;;;;;;;;;;5051731;28;20057;-77
2022/12/10 00:09:05;;;;;;;87.90;29.88;;;;;;;;;;5051568;28;20060;-77
2022/12/10 00:11:31;;;;;;;80.20;28.85;;;;;;;;;;5051637;28;20124;-77
2022/12/10 00:13:58;;;;;;;91.50;28.33;;;;;;;;;;5051296;28;20051;-76
2022/12/10 00:16:25;;;;;;;82.13;27.73;;;;;;;;;;5035260;28;20045;-77
2022/12/10 00:18:51;;;;;;;82.90;28.92;;;;;;;;;;5051269;28;20047;-77
2022/12/10 00:21:19;;;;;;;85.65;29.23;;;;;;;;;;5035460;28;20745;-77
2022/12/10 00:23:46;;;;;;;93.60;30.52;;;;;;;;;;5052880;28;20033;-78
2022/12/10 00:26:19;;;;;;;85.88;30.35;;;;;;;;;;5034680;28;20107;-77
2022/12/10 00:28:46;;;;;;;93.45;31.30;;;;;;;;;;5052783;28;20040;-77
2022/12/10 00:31:13;;;;;;;83.93;28.52;;;;;;;;;;5052396;28;20044;-77
2022/12/10 00:33:40;;;;;;;78.35;27.67;;;;;;;;;;5052058;28;20037;-77
2022/12/10 00:36:08;;;;;;;81.47;29.23;;;;;;;;;;5051063;28;20053;-77
2022/12/10 00:38:34;;;;;;;88.80;28.83;;;;;;;;;;5051570;28;20621;-77
2022/12/10 00:41:00;;;;;;;85.72;29.05;;;;;;;;;;5050986;28;20120;-77
2022/12/10 00:43:27;;;;;;;88.22;30.17;;;;;;;;;;5034727;28;20072;-77
2022/12/10 00:45:53;;;;;;;87.90;30.90;;;;;;;;;;5051324;28;20037;-77
2022/12/10 00:48:20;;;;;;;78.47;27.70;;;;;;;;;;5052278;28;20063;-76
2022/12/10 00:50:55;;;;;;;83.20;30.05;;;;;;;;;;5051297;28;20033;-77
2022/12/10 00:53:21;;;;;;;82.18;29.35;;;;;;;;;;5051312;28;20512;-77
2022/12/10 00:55:47;;;;;;;86.70;29.48;;;;;;;;;;5051125;28;20120;-77
2022/12/10 00:58:13;;;;;;;80.97;28.85;;;;;;;;;;5051969;28;20037;-77
2022/12/10 01:00:39;;;;;;;82.72;28.88;;;;;;;;;;5050970;28;20041;-77
2022/12/10 01:03:05;;;;;;;78.82;28.98;;;;;;;;;;5034040;28;20131;-77
2022/12/10 01:05:31;;;;;;;79.68;29.33;;;;;;;;;;5052332;28;20036;-76
2022/12/10 01:07:57;;;;;;;79.38;28.90;;;;;;;;;;5050403;28;20422;-77
2022/12/10 01:10:23;;;;;;;81.75;26.42;;;;;;;;;;5050964;28;20120;-77
2022/12/10 01:12:49;;;;;;;81.13;29.10;;;;;;;;;;5050760;28;20032;-77
2022/12/10 01:15:15;;;;;;;78.13;28.23;;;;;;;;;;5050511;28;20043;-78
2022/12/10 01:17:41;;;;;;;82.53;28.80;;;;;;;;;;5050576;28;20172;-77
2022/12/10 01:20:07;;;;;;;78.40;28.60;;;;;;;;;;5050541;28;20041;-77
2022/12/10 01:22:33;;;;;;;85.82;29.52;;;;;;;;;;5034226;28;20040;-78
2022/12/10 01:25:00;;;;;;;84.30;30.00;;;;;;;;;;5050758;28;20044;-77
2022/12/10 01:27:26;;;;;;;84.95;28.63;;;;;;;;;;5055117;28;20119;-77
2022/12/10 01:29:52;;;;;;;83.53;28.92;;;;;;;;;;5054958;28;20162;-77
2022/12/10 01:32:18;;;;;;;83.32;30.02;;;;;;;;;;5055987;28;20072;-77
2022/12/10 01:34:44;;;;;;;85.53;28.83;;;;;;;;;;5041170;28;20084;-77
2022/12/10 01:37:10;;;;;;;87.25;28.88;;;;;;;;;;5054466;28;20041;-78
2022/12/10 01:39:37;;;;;;;81.97;29.80;;;;;;;;;;5055184;28;20045;-77
2022/12/10 01:42:03;;;;;;;85.30;29.42;;;;;;;;;;5054269;28;20111;-78
2022/12/10 01:44:29;;;;;;;83.18;28.98;;;;;;;;;;5054604;28;20094;-78
2022/12/10 01:46:56;;;;;;;90.43;31.65;;;;;;;;;;5054929;28;20343;-78
2022/12/10 01:49:27;;;;;;;91.65;31.33;;;;;;;;;;5054138;28;20045;-77
2022/12/10 01:51:55;;;;;;;88.40;29.55;;;;;;;;;;5037833;28;20183;-79
2022/12/10 01:54:22;;;;;;;91.55;30.23;;;;;;;;;;5037637;28;20414;-78
2022/12/10 01:56:51;;;;;;;91.88;31.00;;;;;;;;;;5054270;28;20037;-76
2022/12/10 01:59:17;;;;;;;96.10;30.38;;;;;;;;;;5053904;28;20036;-76
2022/12/10 02:01:46;;;;;;;90.93;29.70;;;;;;;;;;5054377;28;20091;-76
2022/12/10 02:04:31;;;;;;;94.72;30.20;;;;;;;;;;5053671;28;20106;-76
2022/12/10 02:07:10;;;;;;;95.28;30.42;;;;;;;;;;5054043;28;20064;-76
2022/12/10 02:09:36;;;;;;;96.32;29.90;;;;;;;;;;5054111;28;20041;-76
2022/12/10 02:12:07;;;;;;;102.40;32.40;;;;;;;;;;5037429;28;20138;-78
2022/12/10 02:14:42;;;;;;;97.60;31.50;;;;;;;;;;5037860;28;20044;-77
2022/12/10 02:17:14;;;;;;;95.82;32.03;;;;;;;;;;5054701;28;20045;-77
2022/12/10 02:19:58;;;;;;;98.93;31.70;;;;;;;;;;5053849;28;20044;-77
2022/12/10 02:22:25;;;;;;;109.82;31.95;;;;;;;;;;5055008;28;20045;-78
2022/12/10 02:24:52;;;;;;;103.25;32.58;;;;;;;;;;5054173;28;20069;-77
2022/12/10 02:27:37;;;;;;;108.43;33.30;;;;;;;;;;5053466;28;20048;-77
2022/12/10 02:30:04;;;;;;;103.50;32.95;;;;;;;;;;5053982;28;20110;-77
2022/12/10 02:32:38;;;;;;;103.95;31.45;;;;;;;;;;5055136;28;20444;-77
2022/12/10 02:35:06;;;;;;;103.75;32.10;;;;;;;;;;5040389;28;20056;-77
2022/12/10 02:37:34;;;;;;;97.25;29.20;;;;;;;;;;5052785;28;20445;-77
2022/12/10 02:40:03;;;;;;;108.85;32.85;;;;;;;;;;5053604;28;20049;-77
2022/12/10 02:42:30;;;;;;;108.78;33.65;;;;;;;;;;5053682;28;20072;-77
2022/12/10 02:44:57;;;;;;;98.45;31.95;;;;;;;;;;5053371;28;20163;-77
2022/12/10 02:47:24;;;;;;;97.55;29.05;;;;;;;;;;5036420;28;20072;-77
2022/12/10 02:49:51;;;;;;;117.40;33.10;;;;;;;;;;5086852;28;20044;-77
2022/12/10 02:52:19;;;;;;;110.18;32.40;;;;;;;;;;5053097;28;20041;-77
2022/12/10 02:54:45;;;;;;;113.50;32.92;;;;;;;;;;5053204;28;20086;-77
2022/12/10 02:57:18;;;;;;;114.93;32.03;;;;;;;;;;5053091;28;20048;-77
2022/12/10 02:59:50;;;;;;;114.20;33.75;;;;;;;;;;5036909;28;20120;-77
2022/12/10 03:02:33;;;;;;;123.38;34.55;;;;;;;;;;5035354;28;20041;-77
2022/12/10 03:04:59;;;;;;;111.53;33.47;;;;;;;;;;5052678;28;20178;-77
2022/12/10 03:07:34;;;;;;;108.90;34.03;;;;;;;;;;5052524;28;20451;-77
2022/12/10 03:10:04;;;;;;;86.33;24.77;;;;;;;;;;5053202;28;20048;-77
2022/12/10 03:12:50;;;;;;;115.40;33.60;;;;;;;;;;5052530;28;20293;-77
2022/12/10 03:15:16;;;;;;;118.97;33.72;;;;;;;;;;5072776;28;20095;-77
2022/12/10 03:17:44;;;;;;;109.28;31.40;;;;;;;;;;5051866;28;20040;-77
2022/12/10 03:20:13;;;;;;;116.93;34.35;;;;;;;;;;5052611;28;20040;-77
2022/12/10 03:22:40;;;;;;;113.32;34.22;;;;;;;;;;5052815;28;20094;-77
2022/12/10 03:25:07;;;;;;;110.75;34.25;;;;;;;;;;5052869;28;20389;-77
2022/12/10 03:27:34;;;;;;;109.82;32.35;;;;;;;;;;5052714;28;20060;-77
2022/12/10 03:30:00;;;;;;;112.95;34.78;;;;;;;;;;5052556;28;20041;-77
2022/12/10 03:32:28;;;;;;;110.07;32.25;;;;;;;;;;5052629;28;20045;-77
2022/12/10 03:34:55;;;;;;;110.15;34.38;;;;;;;;;;5039304;28;20094;-77
2022/12/10 03:37:22;;;;;;;119.60;35.28;;;;;;;;;;5035461;28;20055;-77
2022/12/10 03:39:49;;;;;;;114.43;33.15;;;;;;;;;;5052347;28;20041;-77
2022/12/10 03:42:15;;;;;;;124.15;36.00;;;;;;;;;;5052878;28;20106;-77
2022/12/10 03:44:41;;;;;;;121.65;34.00;;;;;;;;;;5052462;28;20045;-77
2022/12/10 03:47:10;;;;;;;123.25;34.15;;;;;;;;;;5052537;28;20402;-77
2022/12/10 03:49:36;;;;;;;127.22;34.35;;;;;;;;;;5051705;28;20402;-77
2022/12/10 03:52:03;;;;;;;128.82;35.80;;;;;;;;;;5051513;28;20482;-77
2022/12/10 03:54:29;;;;;;;118.50;34.53;;;;;;;;;;5051826;28;20067;-77
2022/12/10 03:56:55;;;;;;;132.38;37.33;;;;;;;;;;5035476;28;20040;-77
2022/12/10 03:59:21;;;;;;;123.80;36.75;;;;;;;;;;5051719;28;20123;-77
2022/12/10 04:01:47;;;;;;;143.23;38.60;;;;;;;;;;5051991;28;20078;-77
2022/12/10 04:04:13;;;;;;;130.20;36.75;;;;;;;;;;5052377;28;20048;-77
2022/12/10 04:06:40;;;;;;;129.50;36.40;;;;;;;;;;5051379;28;20058;-77
2022/12/10 04:09:06;;;;;;;138.07;37.83;;;;;;;;;;5051976;28;20052;-77
2022/12/10 04:11:32;;;;;;;148.32;38.28;;;;;;;;;;5051639;28;20714;-77
2022/12/10 04:16:43;;;;;;;138.77;37.38;;;;;;;;;;5052693;28;20099;-77
2022/12/10 04:19:13;;;;;;;165.68;38.85;;;;;;;;;;5053397;28;20497;-77
2022/12/10 04:27:17;;;;;;;161.65;37.97;;;;;;;;;;5051758;28;20061;-77
2022/12/10 04:29:43;;;;;;;180.55;39.20;;;;;;;;;;5051681;28;20045;-77
2022/12/10 04:32:09;;;;;;;174.80;38.22;;;;;;;;;;5051592;28;20115;-77
2022/12/10 04:34:35;;;;;;;194.45;39.72;;;;;;;;;;5047879;28;20405;-77
2022/12/10 04:37:02;;;;;;;249.65;40.45;;;;;;;;;;5051455;28;20103;-77
2022/12/10 04:39:28;;;;;;;225.48;39.90;;;;;;;;;;5051090;28;20120;-77
2022/12/10 04:41:54;;;;;;;326.15;40.70;;;;;;;;;;5052735;28;20048;-77
2022/12/10 04:44:20;;;;;;;410.58;42.63;;;;;;;;;;5034914;28;20040;-77
2022/12/10 04:46:47;;;;;;;385.00;44.25;;;;;;;;;;5034647;28;20043;-78
2022/12/10 04:49:13;;;;;;;539.65;45.35;;;;;;;;;;5034718;28;20041;-77
2022/12/10 04:51:39;;;;;;;410.23;43.50;;;;;;;;;;5084456;28;20076;-76
2022/12/10 04:54:05;;;;;;;396.48;44.20;;;;;;;;;;5051022;28;20053;-76
2022/12/10 04:56:32;;;;;;;446.60;45.05;;;;;;;;;;5050586;28;20125;-76
2022/12/10 04:58:58;;;;;;;450.25;45.15;;;;;;;;;;5051057;28;20037;-76
2022/12/10 05:01:25;;;;;;;406.80;42.00;;;;;;;;;;5030897;28;20107;-76
2022/12/10 05:03:51;;;;;;;374.48;38.13;;;;;;;;;;5042558;28;20057;-76
2022/12/10 05:06:18;;;;;;;460.95;41.88;;;;;;;;;;5050145;28;20059;-76
2022/12/10 05:08:45;;;;;;;530.40;44.00;;;;;;;;;;5050785;28;20110;-77
2022/12/10 05:11:12;;;;;;;350.73;39.00;;;;;;;;;;5051092;28;20055;-76
2022/12/10 05:13:39;;;;;;;404.45;41.03;;;;;;;;;;5056346;28;20089;-77
2022/12/10 05:16:06;;;;;;;436.15;41.17;;;;;;;;;;5039635;28;20084;-77
2022/12/10 05:18:32;;;;;;;362.85;38.50;;;;;;;;;;5051717;28;20474;-77
2022/12/10 05:20:59;;;;;;;338.42;40.40;;;;;;;;;;5050832;28;20059;-77
2022/12/10 05:23:28;;;;;;;454.83;40.95;;;;;;;;;;5050692;28;20033;-77
2022/12/10 05:26:09;;;;;;;448.85;41.72;;;;;;;;;;5050663;28;20068;-77
2022/12/10 05:28:39;;;;;;;500.85;44.65;;;;;;;;;;5053457;28;20029;-77
2022/12/10 05:31:05;;;;;;;351.33;34.28;;;;;;;;;;5058858;28;20041;-77
2022/12/10 05:33:32;;;;;;;352.92;34.65;;;;;;;;;;5033609;28;20076;-78
2022/12/10 05:35:59;;;;;;;342.77;34.30;;;;;;;;;;5050913;28;20044;-77
2022/12/10 05:38:25;;;;;;;330.33;34.28;;;;;;;;;;5052090;28;20474;-77
2022/12/10 05:40:54;;;;;;;271.58;32.30;;;;;;;;;;5033819;28;20047;-77
2022/12/10 05:43:20;;;;;;;347.08;34.45;;;;;;;;;;5050839;28;20079;-77
2022/12/10 05:45:46;;;;;;;257.83;31.65;;;;;;;;;;5034025;28;20068;-77
2022/12/10 05:48:13;;;;;;;277.23;30.13;;;;;;;;;;5050608;28;20045;-77
2022/12/10 05:50:39;;;;;;;256.85;30.70;;;;;;;;;;5050116;28;20056;-77
2022/12/10 05:53:05;;;;;;;391.55;33.15;;;;;;;;;;5050565;28;20041;-77
2022/12/10 05:55:32;;;;;;;322.08;31.42;;;;;;;;;;5050650;28;20037;-77
2022/12/10 05:57:59;;;;;;;284.25;29.70;;;;;;;;;;5050250;28;20049;-78
2022/12/10 06:00:25;;;;;;;286.80;31.25;;;;;;;;;;5050753;28;20037;-78
2022/12/10 06:02:51;;;;;;;241.65;30.58;;;;;;;;;;5033645;28;20140;-77
2022/12/10 06:05:17;;;;;;;279.20;32.33;;;;;;;;;;5050795;28;20493;-78
2022/12/10 06:07:43;;;;;;;275.60;33.42;;;;;;;;;;5049744;28;20072;-77
2022/12/10 06:10:10;;;;;;;305.17;33.00;;;;;;;;;;5034146;28;20123;-77
2022/12/10 06:12:36;;;;;;;364.55;33.47;;;;;;;;;;5035103;28;20128;-77
2022/12/10 06:15:02;;;;;;;248.65;30.08;;;;;;;;;;5040292;28;20053;-77
2022/12/10 06:17:28;;;;;;;338.50;33.25;;;;;;;;;;5054002;28;20044;-77
2022/12/10 06:19:54;;;;;;;287.40;31.90;;;;;;;;;;5037119;28;20385;-77
2022/12/10 06:22:20;;;;;;;329.98;32.92;;;;;;;;;;5087619;28;20044;-77
2022/12/10 06:24:46;;;;;;;213.75;29.55;;;;;;;;;;5053605;28;20116;-77
2022/12/10 06:27:12;;;;;;;306.33;34.38;;;;;;;;;;5055157;28;20051;-77
2022/12/10 06:29:38;;;;;;;178.90;30.17;;;;;;;;;;5087134;28;20127;-77
2022/12/10 06:32:04;;;;;;;289.10;33.50;;;;;;;;;;5037257;28;20037;-77
2022/12/10 06:34:30;;;;;;;290.60;31.88;;;;;;;;;;5087603;28;20128;-78
2022/12/10 06:36:56;;;;;;;418.80;35.92;;;;;;;;;;5053429;28;20563;-77
2022/12/10 06:39:23;;;;;;;322.73;32.83;;;;;;;;;;5053920;28;20098;-77
2022/12/10 06:41:49;;;;;;;226.10;25.83;;;;;;;;;;5036890;28;20068;-77
2022/12/10 06:44:15;;;;;;;231.35;30.15;;;;;;;;;;5054948;28;20044;-77
2022/12/10 06:46:41;;;;;;;307.48;30.65;;;;;;;;;;5086976;28;20536;-77
2022/12/10 06:49:07;;;;;;;336.90;32.95;;;;;;;;;;5053909;28;20383;-77
2022/12/10 06:51:33;;;;;;;289.70;30.13;;;;;;;;;;5053911;28;20048;-77
2022/12/10 06:53:59;;;;;;;293.50;30.95;;;;;;;;;;5054517;28;20045;-77
2022/12/10 06:56:26;;;;;;;282.17;32.25;;;;;;;;;;5054700;28;20057;-77
2022/12/10 06:58:52;;;;;;;278.25;32.28;;;;;;;;;;5052924;28;20044;-77
2022/12/10 07:01:20;;;;;;;287.13;33.67;;;;;;;;;;5054909;28;20033;-77
2022/12/10 07:03:48;;;;;;;351.75;32.58;;;;;;;;;;5053218;28;20095;-77
2022/12/10 07:06:14;;;;;;;331.75;34.08;;;;;;;;;;5036677;28;20535;-77
2022/12/10 07:08:41;;;;;;;259.05;29.75;;;;;;;;;;5054399;28;20045;-78
2022/12/10 07:11:08;;;;;;;458.60;36.65;;;;;;;;;;5018068;28;20037;-78
2022/12/10 07:13:35;;;;;;;382.63;36.28;;;;;;;;;;5054466;28;20040;-77
2022/12/10 07:16:01;;;;;;;279.95;30.70;;;;;;;;;;5036268;28;20045;-77
2022/12/10 07:18:27;;;;;;;278.10;31.20;;;;;;;;;;5036663;28;20094;-77
2022/12/10 07:20:53;;;;;;;312.67;30.02;;;;;;;;;;5052821;28;20052;-77
2022/12/10 07:23:20;;;;;;;260.60;30.92;;;;;;;;;;5036380;28;20100;-77
2022/12/10 07:25:46;;;;;;;234.88;29.73;;;;;;;;;;5053597;28;20048;-78
2022/12/10 07:28:12;;;;;;;307.33;30.52;;;;;;;;;;5052785;28;20110;-78
2022/12/10 07:30:38;;;;;;;280.73;29.88;;;;;;;;;;5054149;28;20567;-77
2022/12/10 07:33:04;;;;;;;251.30;30.58;;;;;;;;;;5052095;28;20513;-77
2022/12/10 07:35:30;;;;;;;238.02;29.98;;;;;;;;;;5036642;28;20040;-77
2022/12/10 07:37:56;;;;;;;218.82;29.10;;;;;;;;;;5052387;28;20045;-78
2022/12/10 07:40:22;;;;;;;289.60;32.35;;;;;;;;;;5052745;28;20036;-78
2022/12/10 07:42:48;;;;;;;230.68;28.60;;;;;;;;;;5052303;28;20050;-77
2022/12/10 07:45:14;;;;;;;258.50;30.17;;;;;;;;;;5036456;28;20079;-77
2022/12/10 07:47:40;;;;;;;282.00;29.73;;;;;;;;;;5053825;28;20458;-77
2022/12/10 07:50:07;;;;;;;182.18;27.13;;;;;;;;;;5053280;28;20041;-77
2022/12/10 07:52:33;;;;;;;217.18;28.95;;;;;;;;;;5052697;28;20482;-77
2022/12/10 07:54:59;;;;;;;195.02;25.60;;;;;;;;;;5053215;28;20033;-77
2022/12/10 07:57:25;;;;;;;211.57;28.48;;;;;;;;;;5052304;28;20076;-77
2022/12/10 07:59:51;;;;;;;194.38;27.45;;;;;;;;;;5051992;28;20037;-77
2022/12/10 08:02:17;;;;;;;193.07;27.50;;;;;;;;;;5052338;28;20041;-77
2022/12/10 08:04:43;;;;;;;238.13;29.25;;;;;;;;;;5052208;28;20041;-77
2022/12/10 08:07:09;;;;;;;271.52;30.30;;;;;;;;;;5053005;28;20154;-77
2022/12/10 08:09:35;;;;;;;204.73;28.38;;;;;;;;;;5051915;28;20048;-77
2022/12/10 08:12:01;;;;;;;206.98;26.05;;;;;;;;;;5051698;28;20106;-77
2022/12/10 08:14:27;;;;;;;255.57;28.10;;;;;;;;;;5035518;28;20045;-77
2022/12/10 08:16:53;;;;;;;192.55;26.42;;;;;;;;;;5051458;28;20075;-77
2022/12/10 08:19:19;;;;;;;194.70;26.20;;;;;;;;;;5035436;28;20051;-77
2022/12/10 08:21:45;;;;;;;162.85;23.13;;;;;;;;;;5035292;28;20044;-79
2022/12/10 08:24:15;;;;;;;204.23;26.00;;;;;;;;;;5051990;28;20041;-77
2022/12/10 08:26:41;;;;;;;247.68;28.10;;;;;;;;;;5051818;28;20037;-77
2022/12/10 08:29:07;;;;;;;237.80;28.70;;;;;;;;;;5035160;28;20486;-77
2022/12/10 08:31:34;;;;;;;222.43;28.73;;;;;;;;;;5051547;28;20057;-77
2022/12/10 08:34:00;;;;;;;191.95;26.30;;;;;;;;;;5052339;28;20045;-77
2022/12/10 08:36:26;;;;;;;145.82;26.08;;;;;;;;;;5051559;28;20045;-77
2022/12/10 08:38:52;;;;;;;227.05;27.98;;;;;;;;;;5051938;28;20486;-77
2022/12/10 08:41:19;;;;;;;186.85;26.13;;;;;;;;;;5052463;28;20040;-77
2022/12/10 08:43:45;;;;;;;213.25;26.50;;;;;;;;;;5051534;28;20397;-77
2022/12/10 08:46:13;;;;;;;158.07;23.17;;;;;;;;;;5052522;28;20500;-77
2022/12/10 08:48:39;;;;;;;200.85;25.80;;;;;;;;;;5051648;28;20037;-78
2022/12/10 08:51:06;;;;;;;154.80;23.48;;;;;;;;;;5051268;28;20051;-77
2022/12/10 08:53:32;;;;;;;115.13;23.80;;;;;;;;;;5051776;28;20554;-78
2022/12/10 08:55:58;;;;;;;220.43;27.92;;;;;;;;;;5052318;28;20071;-77
2022/12/10 08:58:25;;;;;;;140.77;24.95;;;;;;;;;;5051433;28;20084;-77
2022/12/10 09:00:51;;;;;;;151.95;25.63;;;;;;;;;;5051124;28;20041;-78
2022/12/10 09:03:17;;;;;;;192.80;26.63;;;;;;;;;;5034729;28;20045;-78
2022/12/10 09:05:43;;;;;;;173.70;27.63;;;;;;;;;;5034842;28;20410;-77
2022/12/10 09:08:10;;;;;;;177.80;26.00;;;;;;;;;;5050499;28;20060;-77
2022/12/10 09:10:39;;;;;;;195.23;26.50;;;;;;;;;;5050961;28;20047;-77
2022/12/10 09:13:06;;;;;;;180.23;30.00;;;;;;;;;;5034179;28;20124;-77
2022/12/10 09:15:32;;;;;;;199.00;26.33;;;;;;;;;;5050997;28;20037;-77
2022/12/10 09:17:58;;;;;;;213.27;25.88;;;;;;;;;;5050987;28;20037;-77
2022/12/10 09:20:24;;;;;;;124.35;23.35;;;;;;;;;;5050795;28;20048;-77
2022/12/10 09:22:51;;;;;;;162.55;25.70;;;;;;;;;;5051188;28;20037;-77
2022/12/10 09:25:17;;;;;;;160.48;24.08;;;;;;;;;;5052425;28;20048;-77
2022/12/10 09:27:43;;;;;;;159.57;24.88;;;;;;;;;;5052098;28;20098;-77
2022/12/10 09:30:10;;;;;;;137.20;23.40;;;;;;;;;;5033780;28;20041;-77
2022/12/10 09:32:36;;;;;;;198.55;26.30;;;;;;;;;;5050783;28;20037;-77
2022/12/10 09:35:03;;;;;;;157.07;24.35;;;;;;;;;;5050687;28;20489;-77
2022/12/10 09:37:29;;;;;;;146.35;23.67;;;;;;;;;;5034206;28;20102;-77
2022/12/10 09:39:55;;;;;;;183.45;27.70;;;;;;;;;;5050759;28;20037;-77
2022/12/10 09:42:40;;;;;;;213.90;25.63;;;;;;;;;;5050802;28;20048;-77
2022/12/10 09:45:15;;;;;;;159.40;23.38;;;;;;;;;;5050415;28;20120;-77
2022/12/10 09:48:02;;;;;;;126.88;22.55;;;;;;;;;;5052993;28;20044;-77
2022/12/10 09:50:31;;;;;;;126.05;22.52;;;;;;;;;;5054278;28;20072;-77
2022/12/10 09:52:58;;;;;;;118.05;23.05;;;;;;;;;;5054700;28;20082;-77
2022/12/10 09:55:37;;;;;;;138.07;24.80;;;;;;;;;;5054073;28;20041;-77
2022/12/10 09:58:06;;;;;;;140.82;23.25;;;;;;;;;;5054542;28;20045;-77
2022/12/10 10:00:35;;;;;;;156.13;24.02;;;;;;;;;;5054175;28;20116;-77
2022/12/10 10:03:02;;;;;;;139.05;24.65;;;;;;;;;;5054437;28;20041;-77
2022/12/10 10:05:30;;;;;;;147.75;23.80;;;;;;;;;;5055499;28;20041;-76
2022/12/10 10:07:58;;;;;;;122.30;23.00;;;;;;;;;;5054403;28;20127;-77
2022/12/10 10:10:30;;;;;;;145.50;23.73;;;;;;;;;;5053941;28;20056;-78
2022/12/10 10:12:59;;;;;;;127.53;22.98;;;;;;;;;;5054088;28;20041;-78
2022/12/10 10:15:29;;;;;;;120.63;22.90;;;;;;;;;;5055052;28;20541;-77
2022/12/10 10:17:56;;;;;;;132.30;26.13;;;;;;;;;;5054505;28;20121;-78
2022/12/10 10:20:22;;;;;;;144.52;23.73;;;;;;;;;;5054051;28;20037;-77
2022/12/10 10:22:48;;;;;;;146.00;26.13;;;;;;;;;;5054112;28;20047;-78
2022/12/10 10:25:16;;;;;;;148.43;25.02;;;;;;;;;;5041413;28;20037;-77
2022/12/10 10:27:42;;;;;;;160.70;27.67;;;;;;;;;;5037280;28;20098;-77
2022/12/10 10:30:15;;;;;;;162.43;23.67;;;;;;;;;;5053941;28;20447;-78
2022/12/10 10:32:41;;;;;;;139.43;23.98;;;;;;;;;;5054059;28;20501;-78
2022/12/10 10:35:08;;;;;;;199.80;28.13;;;;;;;;;;5053195;28;20033;-78
2022/12/10 10:37:34;;;;;;;169.45;26.83;;;;;;;;;;5053601;28;20045;-77
2022/12/10 10:40:00;;;;;;;131.20;24.42;;;;;;;;;;5053662;28;20037;-77
2022/12/10 10:42:35;;;;;;;139.20;24.27;;;;;;;;;;5053505;28;20040;-77
2022/12/10 10:45:03;;;;;;;124.80;24.20;;;;;;;;;;5053760;28;20072;-77
2022/12/10 10:47:31;;;;;;;131.00;23.75;;;;;;;;;;5053492;28;20033;-77
2022/12/10 10:49:58;;;;;;;106.78;23.77;;;;;;;;;;5054232;28;20052;-77
2022/12/10 10:52:27;;;;;;;100.53;23.60;;;;;;;;;;5053154;28;20044;-77
2022/12/10 10:54:53;;;;;;;93.88;24.30;;;;;;;;;;5055308;28;20045;-77
2022/12/10 10:57:28;;;;;;;102.13;23.50;;;;;;;;;;5053295;28;20043;-78
2022/12/10 10:59:56;;;;;;;117.18;25.13;;;;;;;;;;5052413;28;20569;-77
2022/12/10 11:02:36;;;;;;;107.20;26.45;;;;;;;;;;5053420;28;20481;-77
2022/12/10 11:05:15;;;;;;;108.55;24.05;;;;;;;;;;5042535;28;20033;-77
2022/12/10 11:07:42;;;;;;;93.45;23.17;;;;;;;;;;5036466;28;20056;-77
2022/12/10 11:10:17;;;;;;;98.07;22.88;;;;;;;;;;5053591;28;20530;-77
2022/12/10 11:12:45;;;;;;;68.57;18.37;;;;;;;;;;5053555;28;20114;-78
2022/12/10 11:15:23;;;;;;;106.00;24.88;;;;;;;;;;5053303;28;20284;-78
2022/12/10 11:17:53;;;;;;;112.10;24.23;;;;;;;;;;5053120;28;20098;-77
2022/12/10 11:20:33;;;;;;;149.10;26.45;;;;;;;;;;5036433;28;20064;-77
2022/12/10 11:23:08;;;;;;;123.30;24.77;;;;;;;;;;5053293;28;20047;-77
2022/12/10 11:25:49;;;;;;;128.25;25.50;;;;;;;;;;5052846;28;20153;-78
2022/12/10 11:28:36;;;;;;;101.93;25.30;;;;;;;;;;5054541;28;20049;-77
2022/12/10 11:31:21;;;;;;;124.40;25.95;;;;;;;;;;5053280;28;20166;-78
2022/12/10 11:33:58;;;;;;;127.72;26.05;;;;;;;;;;5040708;28;20106;-77
2022/12/10 11:36:35;;;;;;;106.18;24.25;;;;;;;;;;5052721;28;20045;-77
2022/12/10 11:39:13;;;;;;;121.53;25.50;;;;;;;;;;5040658;28;20049;-77
2022/12/10 11:41:49;;;;;;;123.88;25.98;;;;;;;;;;5052483;28;20402;-77
2022/12/10 11:44:34;;;;;;;99.40;24.73;;;;;;;;;;5052870;28;20481;-77
2022/12/10 11:47:00;;;;;;;112.65;24.95;;;;;;;;;;5052665;28;20478;-78
2022/12/10 11:49:39;;;;;;;114.57;24.77;;;;;;;;;;5052476;28;20401;-78
2022/12/10 11:52:38;;;;;;;114.47;25.65;;;;;;;;;;5052934;28;20036;-78
2022/12/10 11:55:22;;;;;;;124.55;25.42;;;;;;;;;;5020345;28;20049;-78
2022/12/10 11:58:01;;;;;;;125.88;26.05;;;;;;;;;;5040543;28;20045;-78
2022/12/10 12:00:31;;;;;;;112.93;27.02;;;;;;;;;;5035621;28;20033;-77
2022/12/10 12:03:16;;;;;;;102.30;25.40;;;;;;;;;;5052147;28;20045;-77
2022/12/10 12:05:49;;;;;;;135.02;27.25;;;;;;;;;;5052038;28;20498;-77
2022/12/10 12:08:24;;;;;;;114.90;27.48;;;;;;;;;;5053054;28;20060;-77
2022/12/10 12:10:56;;;;;;;101.80;26.23;;;;;;;;;;5052212;28;20532;-77
2022/12/10 12:13:28;;;;;;;132.35;25.52;;;;;;;;;;5051627;28;20041;-77
2022/12/10 12:16:07;;;;;;;117.05;27.80;;;;;;;;;;5052088;28;20493;-77
2022/12/10 12:18:33;;;;;;;120.65;28.17;;;;;;;;;;5051442;28;20049;-77
2022/12/10 12:21:02;;;;;;;103.78;26.13;;;;;;;;;;5052044;28;20041;-77
2022/12/10 12:23:41;;;;;;;106.88;24.65;;;;;;;;;;5051653;28;20513;-78
2022/12/10 12:26:12;;;;;;;120.55;27.45;;;;;;;;;;5052158;28;20033;-77
2022/12/10 12:28:44;;;;;;;116.53;26.10;;;;;;;;;;5051781;28;20104;-77
2022/12/10 12:31:15;;;;;;;114.15;25.10;;;;;;;;;;5051742;28;20036;-77
2022/12/10 12:33:47;;;;;;;116.10;24.90;;;;;;;;;;5034491;28;20037;-78
2022/12/10 12:36:16;;;;;;;106.63;26.10;;;;;;;;;;5051543;28;20059;-77
2022/12/10 12:38:54;;;;;;;100.43;26.00;;;;;;;;;;5034814;28;20397;-77
2022/12/10 12:41:32;;;;;;;86.82;23.95;;;;;;;;;;5053119;28;20037;-77
2022/12/10 12:44:21;;;;;;;108.97;25.23;;;;;;;;;;5039330;28;20049;-77
2022/12/10 12:46:48;;;;;;;98.15;23.58;;;;;;;;;;5034624;28;20048;-77
2022/12/10 12:49:22;;;;;;;91.40;22.63;;;;;;;;;;5051399;28;20417;-77
2022/12/10 12:51:51;;;;;;;93.65;26.50;;;;;;;;;;5051207;28;20045;-77
2022/12/10 12:54:17;;;;;;;109.10;25.00;;;;;;;;;;5051615;28;20493;-77
2022/12/10 12:57:06;;;;;;;114.60;23.95;;;;;;;;;;5051319;28;20551;-77
2022/12/10 12:59:52;;;;;;;88.55;23.08;;;;;;;;;;5039834;28;20482;-77
2022/12/10 13:02:18;;;;;;;78.10;20.23;;;;;;;;;;5051665;28;20540;-77
2022/12/10 13:04:44;;;;;;;101.30;22.65;;;;;;;;;;5050705;28;20078;-77
2022/12/10 13:07:27;;;;;;;102.15;26.73;;;;;;;;;;5034749;28;20087;-77
2022/12/10 13:10:11;;;;;;;107.15;24.48;;;;;;;;;;5034284;28;20430;-77
2022/12/10 13:12:41;;;;;;;92.45;24.38;;;;;;;;;;5051318;28;20049;-77
2022/12/10 13:15:33;;;;;;;114.93;24.23;;;;;;;;;;5051084;28;20087;-77
2022/12/10 13:18:25;;;;;;;93.50;23.80;;;;;;;;;;5052267;28;20044;-77
2022/12/10 13:21:10;;;;;;;104.32;24.58;;;;;;;;;;5049944;28;20409;-77
2022/12/10 13:23:48;;;;;;;109.80;24.23;;;;;;;;;;5050230;28;20037;-77
2022/12/10 13:26:28;;;;;;;105.72;24.67;;;;;;;;;;5052193;28;20548;-77
2022/12/10 13:28:54;;;;;;;108.15;24.25;;;;;;;;;;5051181;28;20049;-77
2022/12/10 13:31:42;;;;;;;122.82;23.83;;;;;;;;;;5051241;28;20037;-77
2022/12/10 13:34:22;;;;;;;146.85;24.48;;;;;;;;;;5074640;28;20117;-77
2022/12/10 13:36:48;;;;;;;129.82;23.83;;;;;;;;;;5050435;28;20041;-77
2022/12/10 13:39:22;;;;;;;136.65;26.17;;;;;;;;;;5050947;28;20076;-77
2022/12/10 13:45:00;;;;;;;130.38;24.58;;;;;;;;;;5050477;28;20045;-77
2022/12/10 13:47:42;;;;;;;117.50;18.70;;;;;;;;;;5034400;28;20045;-77
2022/12/10 13:50:26;;;;;;;136.02;24.85;;;;;;;;;;5051055;28;20102;-77
2022/12/10 13:53:08;;;;;;;98.53;23.83;;;;;;;;;;5050696;28;20045;-77
2022/12/10 13:55:34;;;;;;;90.80;24.33;;;;;;;;;;5050932;28;20119;-79
2022/12/10 13:58:09;;;;;;;101.72;23.48;;;;;;;;;;5052398;28;20391;-79
2022/12/10 14:00:42;;;;;;;85.40;22.85;;;;;;;;;;5051487;28;20442;-78
2022/12/10 14:03:14;;;;;;;115.53;22.27;;;;;;;;;;5051099;28;20099;-79
2022/12/10 14:05:51;;;;;;;112.03;22.98;;;;;;;;;;5050395;28;20040;-76
2022/12/10 14:08:19;;;;;;;130.93;24.10;;;;;;;;;;5070668;28;20088;-75
2022/12/10 14:10:46;;;;;;;114.25;23.73;;;;;;;;;;5050234;28;20053;-75
2022/12/10 14:13:13;;;;;;;102.97;22.90;;;;;;;;;;5034423;28;20044;-77
2022/12/10 14:15:40;;;;;;;203.75;26.05;;;;;;;;;;5051625;28;20402;-76
2022/12/10 14:18:16;;;;;;;122.05;23.15;;;;;;;;;;5050738;28;20049;-76
2022/12/10 14:20:45;;;;;;;173.00;26.85;;;;;;;;;;5050022;28;20045;-76
2022/12/10 14:23:38;;;;;;;125.93;23.38;;;;;;;;;;5050779;28;20525;-77
2022/12/10 14:26:12;;;;;;;122.43;24.15;;;;;;;;;;5034667;28;20045;-76
2022/12/10 14:28:43;;;;;;;131.85;24.10;;;;;;;;;;5050920;28;20041;-76
2022/12/10 14:31:21;;;;;;;168.73;24.58;;;;;;;;;;5050588;28;20041;-76